sensor_id;sensor_type;location;lat;lon;timestamp;pressure;altitude;pressure_sealevel;temperature;humidity
65754;BME280;52488;47.502;18.940;2023-02-20T00:00:26;98645.91;;;3.07;66.37
65754;BME280;52488;47.502;18.940;2023-02-20T00:01:30;98650.59;;;3.06;66.58
65754;BME280;52488;47.502;18.940;2023-02-20T00:02:33;98645.56;;;3.10;65.86
65754;BME280;52488;47.502;18.940;2023-02-20T00:03:36;98665.84;;;3.09;65.93
65754;BME280;52488;47.502;18.940;2023-02-20T00:04:39;98676.16;;;3.11;65.38
65754;BME280;52488;47.502;18.940;2023-02-20T00:05:42;98663.34;;;3.11;65.32
65754;BME280;52488;47.502;18.940;2023-02-20T00:06:46;98664.09;;;3.12;65.47
65754;BME280;52488;47.502;18.940;2023-02-20T00:07:49;98661.13;;;3.10;65.55
65754;BME280;52488;47.502;18.940;2023-02-20T00:08:52;98676.69;;;3.09;65.96
65754;BME280;52488;47.502;18.940;2023-02-20T00:09:55;98667.28;;;3.10;65.76
65754;BME280;52488;47.502;18.940;2023-02-20T00:10:58;98666.87;;;3.06;65.94
65754;BME280;52488;47.502;18.940;2023-02-20T00:12:01;98688.81;;;3.08;66.34
65754;BME280;52488;47.502;18.940;2023-02-20T00:13:04;98686.62;;;3.07;66.23
65754;BME280;52488;47.502;18.940;2023-02-20T00:14:08;98689.34;;;3.07;66.42
65754;BME280;52488;47.502;18.940;2023-02-20T00:15:14;98690.78;;;3.08;66.57
65754;BME280;52488;47.502;18.940;2023-02-20T00:16:17;98701.44;;;3.06;66.50
65754;BME280;52488;47.502;18.940;2023-02-20T00:17:20;98683.97;;;3.01;66.20
65754;BME280;52488;47.502;18.940;2023-02-20T00:18:23;98689.19;;;2.99;66.55
65754;BME280;52488;47.502;18.940;2023-02-20T00:19:26;98695.66;;;2.96;66.73
65754;BME280;52488;47.502;18.940;2023-02-20T00:20:29;98699.69;;;2.89;67.12
65754;BME280;52488;47.502;18.940;2023-02-20T00:21:33;98704.59;;;2.91;67.54
65754;BME280;52488;47.502;18.940;2023-02-20T00:22:37;98697.72;;;2.90;67.64
65754;BME280;52488;47.502;18.940;2023-02-20T00:23:39;98696.66;;;2.93;67.50
65754;BME280;52488;47.502;18.940;2023-02-20T00:24:43;98697.31;;;2.99;67.30
65754;BME280;52488;47.502;18.940;2023-02-20T00:25:45;98702.34;;;2.95;67.37
65754;BME280;52488;47.502;18.940;2023-02-20T00:26:52;98691.97;;;2.94;67.76
65754;BME280;52488;47.502;18.940;2023-02-20T00:27:55;98705.34;;;2.91;67.81
65754;BME280;52488;47.502;18.940;2023-02-20T00:28:58;98700.19;;;2.88;68.25
65754;BME280;52488;47.502;18.940;2023-02-20T00:30:03;98713.28;;;2.89;68.07
65754;BME280;52488;47.502;18.940;2023-02-20T00:31:07;98705.41;;;2.86;68.18
65754;BME280;52488;47.502;18.940;2023-02-20T00:32:11;98706.34;;;2.88;68.32
65754;BME280;52488;47.502;18.940;2023-02-20T00:33:14;98704.75;;;2.80;68.36
65754;BME280;52488;47.502;18.940;2023-02-20T00:34:17;98716.94;;;2.73;68.94
65754;BME280;52488;47.502;18.940;2023-02-20T00:35:20;98719.59;;;2.79;68.44
65754;BME280;52488;47.502;18.940;2023-02-20T00:36:23;98717.16;;;2.75;68.83
65754;BME280;52488;47.502;18.940;2023-02-20T00:37:27;98726.75;;;2.76;69.20
65754;BME280;52488;47.502;18.940;2023-02-20T00:38:30;98728.44;;;2.79;69.01
65754;BME280;52488;47.502;18.940;2023-02-20T00:39:33;98711.50;;;2.73;69.37
65754;BME280;52488;47.502;18.940;2023-02-20T00:40:36;98727.00;;;2.78;69.09
65754;BME280;52488;47.502;18.940;2023-02-20T00:41:39;98728.37;;;2.85;68.54
65754;BME280;52488;47.502;18.940;2023-02-20T00:42:43;98733.44;;;2.75;69.06
65754;BME280;52488;47.502;18.940;2023-02-20T00:43:46;98741.13;;;2.71;69.48
65754;BME280;52488;47.502;18.940;2023-02-20T00:44:49;98741.50;;;2.62;69.88
65754;BME280;52488;47.502;18.940;2023-02-20T00:45:52;98754.62;;;2.58;69.94
65754;BME280;52488;47.502;18.940;2023-02-20T00:46:55;98744.34;;;2.51;70.36
65754;BME280;52488;47.502;18.940;2023-02-20T00:47:59;98750.00;;;2.53;70.78
65754;BME280;52488;47.502;18.940;2023-02-20T00:49:02;98750.50;;;2.51;70.70
65754;BME280;52488;47.502;18.940;2023-02-20T00:50:07;98748.53;;;2.52;70.48
65754;BME280;52488;47.502;18.940;2023-02-20T00:51:10;98761.84;;;2.50;70.71
65754;BME280;52488;47.502;18.940;2023-02-20T00:52:13;98755.03;;;2.43;70.80
65754;BME280;52488;47.502;18.940;2023-02-20T00:53:16;98761.69;;;2.42;70.90
65754;BME280;52488;47.502;18.940;2023-02-20T00:54:19;98759.25;;;2.38;70.88
65754;BME280;52488;47.502;18.940;2023-02-20T00:55:22;98760.16;;;2.47;70.26
65754;BME280;52488;47.502;18.940;2023-02-20T00:56:25;98766.37;;;2.42;70.47
65754;BME280;52488;47.502;18.940;2023-02-20T00:57:28;98764.69;;;2.38;70.77
65754;BME280;52488;47.502;18.940;2023-02-20T00:58:35;98774.06;;;2.37;71.05
65754;BME280;52488;47.502;18.940;2023-02-20T00:59:38;98768.44;;;2.35;71.27
65754;BME280;52488;47.502;18.940;2023-02-20T01:00:41;98772.88;;;2.33;71.30
65754;BME280;52488;47.502;18.940;2023-02-20T01:01:44;98774.91;;;2.27;71.52
65754;BME280;52488;47.502;18.940;2023-02-20T01:02:47;98776.91;;;2.26;71.49
65754;BME280;52488;47.502;18.940;2023-02-20T01:03:51;98782.09;;;2.24;71.49
65754;BME280;52488;47.502;18.940;2023-02-20T01:04:54;98775.38;;;2.31;71.49
65754;BME280;52488;47.502;18.940;2023-02-20T01:05:58;98767.69;;;2.35;71.32
65754;BME280;52488;47.502;18.940;2023-02-20T01:07:01;98769.94;;;2.31;71.12
65754;BME280;52488;47.502;18.940;2023-02-20T01:08:04;98771.25;;;2.24;71.47
65754;BME280;52488;47.502;18.940;2023-02-20T01:09:07;98768.34;;;2.22;71.81
65754;BME280;52488;47.502;18.940;2023-02-20T01:10:11;98772.28;;;2.21;72.16
65754;BME280;52488;47.502;18.940;2023-02-20T01:11:15;98775.75;;;2.16;72.47
65754;BME280;52488;47.502;18.940;2023-02-20T01:12:18;98772.44;;;2.29;72.34
65754;BME280;52488;47.502;18.940;2023-02-20T01:13:21;98772.28;;;2.21;72.13
65754;BME280;52488;47.502;18.940;2023-02-20T01:14:23;98777.69;;;2.21;72.44
65754;BME280;52488;47.502;18.940;2023-02-20T01:15:27;98773.31;;;2.18;72.21
65754;BME280;52488;47.502;18.940;2023-02-20T01:16:29;98778.00;;;2.18;72.20
65754;BME280;52488;47.502;18.940;2023-02-20T01:17:34;98773.69;;;2.28;71.57
65754;BME280;52488;47.502;18.940;2023-02-20T01:18:39;98779.72;;;2.40;70.52
65754;BME280;52488;47.502;18.940;2023-02-20T01:19:43;98777.88;;;2.29;70.88
65754;BME280;52488;47.502;18.940;2023-02-20T01:20:46;98783.28;;;2.29;71.07
65754;BME280;52488;47.502;18.940;2023-02-20T01:21:50;98791.25;;;2.21;71.42
65754;BME280;52488;47.502;18.940;2023-02-20T01:22:53;98787.84;;;2.15;71.74
65754;BME280;52488;47.502;18.940;2023-02-20T01:23:56;98794.06;;;2.10;72.02
65754;BME280;52488;47.502;18.940;2023-02-20T01:24:59;98788.59;;;2.16;72.26
65754;BME280;52488;47.502;18.940;2023-02-20T01:26:02;98784.59;;;2.22;71.85
65754;BME280;52488;47.502;18.940;2023-02-20T01:27:05;98784.59;;;2.22;71.58
65754;BME280;52488;47.502;18.940;2023-02-20T01:28:13;98786.84;;;2.18;71.91
65754;BME280;52488;47.502;18.940;2023-02-20T01:29:16;98781.50;;;2.12;72.42
65754;BME280;52488;47.502;18.940;2023-02-20T01:30:20;98779.28;;;2.11;72.44
65754;BME280;52488;47.502;18.940;2023-02-20T01:31:23;98782.00;;;2.11;72.37
65754;BME280;52488;47.502;18.940;2023-02-20T01:32:26;98781.03;;;2.08;72.52
65754;BME280;52488;47.502;18.940;2023-02-20T01:33:28;98783.53;;;2.06;72.59
65754;BME280;52488;47.502;18.940;2023-02-20T01:34:31;98781.75;;;2.09;72.50
65754;BME280;52488;47.502;18.940;2023-02-20T01:35:34;98781.25;;;2.10;72.41
65754;BME280;52488;47.502;18.940;2023-02-20T01:36:37;98785.16;;;2.15;72.14
65754;BME280;52488;47.502;18.940;2023-02-20T01:37:40;98787.63;;;2.13;72.18
65754;BME280;52488;47.502;18.940;2023-02-20T01:38:44;98783.69;;;2.14;72.08
65754;BME280;52488;47.502;18.940;2023-02-20T01:39:47;98783.22;;;2.10;72.15
65754;BME280;52488;47.502;18.940;2023-02-20T01:40:50;98785.19;;;2.09;72.19
65754;BME280;52488;47.502;18.940;2023-02-20T01:42:05;98788.00;;;1.98;72.56
65754;BME280;52488;47.502;18.940;2023-02-20T01:43:09;98784.62;;;1.92;73.08
65754;BME280;52488;47.502;18.940;2023-02-20T01:44:18;98781.87;;;1.98;73.21
65754;BME280;52488;47.502;18.940;2023-02-20T01:47:31;98786.81;;;1.94;72.88
65754;BME280;52488;47.502;18.940;2023-02-20T01:48:35;98789.87;;;1.84;73.30
65754;BME280;52488;47.502;18.940;2023-02-20T01:49:45;98788.41;;;1.83;73.46
65754;BME280;52488;47.502;18.940;2023-02-20T01:50:51;98786.09;;;1.93;73.23
65754;BME280;52488;47.502;18.940;2023-02-20T01:53:18;98782.53;;;1.79;73.69
65754;BME280;52488;47.502;18.940;2023-02-20T01:54:25;98780.59;;;1.74;74.01
65754;BME280;52488;47.502;18.940;2023-02-20T01:55:32;98787.00;;;1.71;74.35
65754;BME280;52488;47.502;18.940;2023-02-20T01:56:38;98785.53;;;1.70;74.52
65754;BME280;52488;47.502;18.940;2023-02-20T01:57:44;98787.75;;;1.72;74.55
65754;BME280;52488;47.502;18.940;2023-02-20T01:58:50;98787.75;;;1.72;74.85
65754;BME280;52488;47.502;18.940;2023-02-20T01:59:59;98787.31;;;1.68;75.00
65754;BME280;52488;47.502;18.940;2023-02-20T02:01:03;98791.47;;;1.69;74.84
65754;BME280;52488;47.502;18.940;2023-02-20T02:02:07;98793.91;;;1.72;74.57
65754;BME280;52488;47.502;18.940;2023-02-20T02:03:15;98793.19;;;1.66;74.75
65754;BME280;52488;47.502;18.940;2023-02-20T02:04:20;98789.31;;;1.62;75.08
65754;BME280;52488;47.502;18.940;2023-02-20T02:05:24;98791.53;;;1.63;75.09
65754;BME280;52488;47.502;18.940;2023-02-20T02:06:29;98792.00;;;1.67;75.19
65754;BME280;52488;47.502;18.940;2023-02-20T02:07:35;98787.31;;;1.68;75.05
65754;BME280;52488;47.502;18.940;2023-02-20T02:08:38;98786.06;;;1.69;75.01
65754;BME280;52488;47.502;18.940;2023-02-20T02:09:52;98792.72;;;1.68;74.98
65754;BME280;52488;47.502;18.940;2023-02-20T02:11:03;98785.84;;;1.67;75.18
65754;BME280;52488;47.502;18.940;2023-02-20T02:12:08;98792.47;;;1.66;75.08
65754;BME280;52488;47.502;18.940;2023-02-20T02:13:11;98792.50;;;1.60;75.20
65754;BME280;52488;47.502;18.940;2023-02-20T02:14:14;98798.31;;;1.45;75.51
65754;BME280;52488;47.502;18.940;2023-02-20T02:15:20;98804.53;;;1.35;75.79
65754;BME280;52488;47.502;18.940;2023-02-20T02:16:43;98803.09;;;1.28;76.21
65754;BME280;52488;47.502;18.940;2023-02-20T02:24:05;98805.19;;;0.99;78.01
65754;BME280;52488;47.502;18.940;2023-02-20T02:25:35;98809.12;;;0.98;78.48
65754;BME280;52488;47.502;18.940;2023-02-20T02:29:47;98809.53;;;0.67;79.83
65754;BME280;52488;47.502;18.940;2023-02-20T02:33:03;98806.06;;;0.66;80.02
65754;BME280;52488;47.502;18.940;2023-02-20T02:35:33;98814.22;;;0.55;79.96
65754;BME280;52488;47.502;18.940;2023-02-20T02:38:50;98813.53;;;0.32;81.46
65754;BME280;52488;47.502;18.940;2023-02-20T02:40:13;98811.09;;;0.40;81.06
65754;BME280;52488;47.502;18.940;2023-02-20T02:43:00;98817.50;;;0.20;81.66
65754;BME280;52488;47.502;18.940;2023-02-20T02:44:21;98823.16;;;0.16;81.69
65754;BME280;52488;47.502;18.940;2023-02-20T02:46:55;98826.34;;;0.09;82.33
65754;BME280;52488;47.502;18.940;2023-02-20T02:48:10;98818.25;;;0.04;82.58
65754;BME280;52488;47.502;18.940;2023-02-20T02:50:27;98820.97;;;-0.02;82.79
65754;BME280;52488;47.502;18.940;2023-02-20T02:51:35;98827.59;;;-0.03;82.98
65754;BME280;52488;47.502;18.940;2023-02-20T02:52:39;98818.28;;;-0.02;83.26
65754;BME280;52488;47.502;18.940;2023-02-20T02:54:27;98826.13;;;-0.04;83.50
65754;BME280;52488;47.502;18.940;2023-02-20T02:55:31;98832.78;;;-0.05;83.50
65754;BME280;52488;47.502;18.940;2023-02-20T02:56:37;98822.69;;;-0.10;84.07
65754;BME280;52488;47.502;18.940;2023-02-20T02:57:40;98822.94;;;-0.08;84.22
65754;BME280;52488;47.502;18.940;2023-02-20T02:58:44;98833.50;;;-0.10;84.07
65754;BME280;52488;47.502;18.940;2023-02-20T02:59:50;98831.78;;;-0.13;84.35
65754;BME280;52488;47.502;18.940;2023-02-20T03:00:59;98830.31;;;-0.14;84.58
65754;BME280;52488;47.502;18.940;2023-02-20T03:02:08;98840.13;;;-0.11;84.40
65754;BME280;52488;47.502;18.940;2023-02-20T03:03:18;98836.22;;;-0.16;84.64
65754;BME280;52488;47.502;18.940;2023-02-20T03:04:23;98846.00;;;-0.18;85.15
65754;BME280;52488;47.502;18.940;2023-02-20T03:05:36;98847.47;;;-0.17;85.17
65754;BME280;52488;47.502;18.940;2023-02-20T03:06:51;98848.72;;;-0.18;85.33
65754;BME280;52488;47.502;18.940;2023-02-20T03:07:56;98846.00;;;-0.18;85.27
65754;BME280;52488;47.502;18.940;2023-02-20T03:10:11;98856.56;;;-0.20;85.97
65754;BME280;52488;47.502;18.940;2023-02-20T03:11:24;98853.88;;;-0.20;86.25
65754;BME280;52488;47.502;18.940;2023-02-20T03:12:28;98844.53;;;-0.19;86.19
65754;BME280;52488;47.502;18.940;2023-02-20T03:13:36;98853.62;;;-0.17;85.94
65754;BME280;52488;47.502;18.940;2023-02-20T03:15:10;98853.88;;;-0.20;86.20
65754;BME280;52488;47.502;18.940;2023-02-20T03:18:35;98862.22;;;-0.24;86.63
65754;BME280;52488;47.502;18.940;2023-02-20T03:19:19;98856.81;;;-0.24;87.04
65754;BME280;52488;47.502;18.940;2023-02-20T03:20:25;98844.31;;;-0.21;87.35
65754;BME280;52488;47.502;18.940;2023-02-20T03:21:30;98844.31;;;-0.21;87.34
65754;BME280;52488;47.502;18.940;2023-02-20T03:22:38;98843.31;;;-0.18;87.22
65754;BME280;52488;47.502;18.940;2023-02-20T03:23:53;98834.97;;;-0.20;87.24
65754;BME280;52488;47.502;18.940;2023-02-20T03:25:10;98836.44;;;-0.19;87.31
65754;BME280;52488;47.502;18.940;2023-02-20T03:26:17;98832.28;;;-0.20;87.47
65754;BME280;52488;47.502;18.940;2023-02-20T03:27:45;98830.06;;;-0.22;87.93
65754;BME280;52488;47.502;18.940;2023-02-20T03:28:58;98837.91;;;-0.18;88.38
65754;BME280;52488;47.502;18.940;2023-02-20T03:30:09;98824.69;;;-0.16;88.30
65754;BME280;52488;47.502;18.940;2023-02-20T03:31:25;98830.81;;;-0.16;88.42
65754;BME280;52488;47.502;18.940;2023-02-20T03:32:31;98827.09;;;-0.18;88.31
65754;BME280;52488;47.502;18.940;2023-02-20T03:34:00;98833.97;;;-0.17;88.19
65754;BME280;52488;47.502;18.940;2023-02-20T03:35:26;98833.75;;;-0.19;88.07
65754;BME280;52488;47.502;18.940;2023-02-20T03:37:00;98837.41;;;-0.22;88.32
65754;BME280;52488;47.502;18.940;2023-02-20T03:38:26;98837.41;;;-0.22;88.19
65754;BME280;52488;47.502;18.940;2023-02-20T03:39:53;98840.13;;;-0.22;88.35
65754;BME280;52488;47.502;18.940;2023-02-20T03:41:17;98841.84;;;-0.25;88.23
65754;BME280;52488;47.502;18.940;2023-02-20T03:42:44;98844.03;;;-0.29;88.29
65754;BME280;52488;47.502;18.940;2023-02-20T03:44:09;98839.38;;;-0.29;88.38
65754;BME280;52488;47.502;18.940;2023-02-20T03:45:13;98851.41;;;-0.30;88.42
65754;BME280;52488;47.502;18.940;2023-02-20T03:46:20;98858.03;;;-0.31;88.58
65754;BME280;52488;47.502;18.940;2023-02-20T03:47:26;98851.91;;;-0.31;88.62
65754;BME280;52488;47.502;18.940;2023-02-20T03:48:45;98858.03;;;-0.31;88.65
65754;BME280;52488;47.502;18.940;2023-02-20T03:49:51;98864.91;;;-0.30;88.59
65754;BME280;52488;47.502;18.940;2023-02-20T03:50:56;98862.94;;;-0.29;88.64
65754;BME280;52488;47.502;18.940;2023-02-20T03:52:19;98861.97;;;-0.32;88.90
65754;BME280;52488;47.502;18.940;2023-02-20T03:53:23;98862.47;;;-0.33;88.94
65754;BME280;52488;47.502;18.940;2023-02-20T03:54:27;98873.28;;;-0.33;89.01
65754;BME280;52488;47.502;18.940;2023-02-20T03:55:31;98870.81;;;-0.31;89.04
65754;BME280;52488;47.502;18.940;2023-02-20T03:56:39;98869.56;;;-0.24;88.96
65754;BME280;52488;47.502;18.940;2023-02-20T03:57:48;98869.59;;;-0.19;88.77
65754;BME280;52488;47.502;18.940;2023-02-20T03:58:55;98859.00;;;-0.22;88.83
65754;BME280;52488;47.502;18.940;2023-02-20T04:00:30;98865.41;;;-0.25;89.02
65754;BME280;52488;47.502;18.940;2023-02-20T04:01:35;98858.28;;;-0.23;89.11
65754;BME280;52488;47.502;18.940;2023-02-20T04:02:42;98862.22;;;-0.24;89.24
65754;BME280;52488;47.502;18.940;2023-02-20T04:03:47;98863.94;;;-0.27;89.52
65754;BME280;52488;47.502;18.940;2023-02-20T04:04:54;98861.97;;;-0.26;89.75
65754;BME280;52488;47.502;18.940;2023-02-20T04:05:59;98858.53;;;-0.27;89.76
65754;BME280;52488;47.502;18.940;2023-02-20T04:07:09;98858.28;;;-0.23;89.69
65754;BME280;52488;47.502;18.940;2023-02-20T04:08:25;98858.03;;;-0.25;89.78
65754;BME280;52488;47.502;18.940;2023-02-20T04:09:34;98871.31;;;-0.21;89.85
65754;BME280;52488;47.502;18.940;2023-02-20T04:10:43;98860.50;;;-0.21;89.86
65754;BME280;52488;47.502;18.940;2023-02-20T04:11:52;98861.25;;;-0.21;89.88
65754;BME280;52488;47.502;18.940;2023-02-20T04:12:57;98863.69;;;-0.23;89.95
65754;BME280;52488;47.502;18.940;2023-02-20T04:14:02;98859.78;;;-0.22;90.05
65754;BME280;52488;47.502;18.940;2023-02-20T04:15:08;98867.13;;;-0.22;89.92
65754;BME280;52488;47.502;18.940;2023-02-20T04:16:12;98861.25;;;-0.27;90.05
65754;BME280;52488;47.502;18.940;2023-02-20T04:17:22;98860.75;;;-0.25;90.00
65754;BME280;52488;47.502;18.940;2023-02-20T04:18:30;98850.44;;;-0.27;89.94
65754;BME280;52488;47.502;18.940;2023-02-20T04:19:34;98847.00;;;-0.21;89.82
65754;BME280;52488;47.502;18.940;2023-02-20T04:20:40;98844.03;;;-0.23;89.74
65754;BME280;52488;47.502;18.940;2023-02-20T04:21:52;98839.38;;;-0.29;89.81
65754;BME280;52488;47.502;18.940;2023-02-20T04:23:01;98845.03;;;-0.32;90.00
65754;BME280;52488;47.502;18.940;2023-02-20T04:24:12;98850.66;;;-0.36;90.29
65754;BME280;52488;47.502;18.940;2023-02-20T04:25:33;98863.44;;;-0.36;90.46
65754;BME280;52488;47.502;18.940;2023-02-20T04:26:40;98857.06;;;-0.33;90.33
65754;BME280;52488;47.502;18.940;2023-02-20T04:27:43;98855.34;;;-0.36;90.49
65754;BME280;52488;47.502;18.940;2023-02-20T04:28:46;98851.41;;;-0.35;90.51
65754;BME280;52488;47.502;18.940;2023-02-20T04:29:50;98853.59;;;-0.34;90.58
65754;BME280;52488;47.502;18.940;2023-02-20T04:30:53;98861.72;;;-0.34;90.70
65754;BME280;52488;47.502;18.940;2023-02-20T04:31:57;98858.53;;;-0.32;90.78
65754;BME280;52488;47.502;18.940;2023-02-20T04:33:00;98868.09;;;-0.31;90.87
65754;BME280;52488;47.502;18.940;2023-02-20T04:34:03;98867.59;;;-0.30;91.01
65754;BME280;52488;47.502;18.940;2023-02-20T04:35:08;98880.37;;;-0.30;91.18
65754;BME280;52488;47.502;18.940;2023-02-20T04:36:17;98872.28;;;-0.24;91.09
65754;BME280;52488;47.502;18.940;2023-02-20T04:37:20;98876.72;;;-0.21;91.09
65754;BME280;52488;47.502;18.940;2023-02-20T04:38:24;98875.22;;;-0.17;90.94
65754;BME280;52488;47.502;18.940;2023-02-20T04:39:27;98874.97;;;-0.19;90.88
65754;BME280;52488;47.502;18.940;2023-02-20T04:40:30;98875.22;;;-0.11;90.79
65754;BME280;52488;47.502;18.940;2023-02-20T04:41:33;98870.31;;;-0.02;90.48
65754;BME280;52488;47.502;18.940;2023-02-20T04:42:36;98863.22;;;-0.05;90.34
65754;BME280;52488;47.502;18.940;2023-02-20T04:43:39;98871.56;;;-0.03;90.34
65754;BME280;52488;47.502;18.940;2023-02-20T04:44:42;98870.59;;;-0.05;90.32
65754;BME280;52488;47.502;18.940;2023-02-20T04:45:45;98868.13;;;-0.09;90.43
65754;BME280;52488;47.502;18.940;2023-02-20T04:46:48;98863.94;;;-0.04;90.50
65754;BME280;52488;47.502;18.940;2023-02-20T04:47:51;98861.97;;;0.02;90.25
65754;BME280;52488;47.502;18.940;2023-02-20T04:48:54;98861.75;;;0.00;90.17
65754;BME280;52488;47.502;18.940;2023-02-20T04:49:58;98859.28;;;0.02;90.13
65754;BME280;52488;47.502;18.940;2023-02-20T04:51:01;98852.88;;;-0.01;90.16
65754;BME280;52488;47.502;18.940;2023-02-20T04:52:04;98842.56;;;-0.02;90.26
65754;BME280;52488;47.502;18.940;2023-02-20T04:53:07;98845.03;;;-0.04;90.33
65754;BME280;52488;47.502;18.940;2023-02-20T04:54:10;98848.97;;;-0.05;90.56
65754;BME280;52488;47.502;18.940;2023-02-20T04:55:13;98847.75;;;-0.04;90.66
65754;BME280;52488;47.502;18.940;2023-02-20T04:56:16;98841.59;;;-0.05;90.69
65754;BME280;52488;47.502;18.940;2023-02-20T04:57:20;98842.34;;;-0.04;90.76
65754;BME280;52488;47.502;18.940;2023-02-20T04:58:24;98837.69;;;-0.04;90.84
65754;BME280;52488;47.502;18.940;2023-02-20T04:59:27;98834.47;;;-0.02;90.83
65754;BME280;52488;47.502;18.940;2023-02-20T05:00:30;98821.22;;;0.00;90.82
65754;BME280;52488;47.502;18.940;2023-02-20T05:01:33;98823.94;;;0.00;90.81
65754;BME280;52488;47.502;18.940;2023-02-20T05:02:39;98827.09;;;-0.02;90.92
65754;BME280;52488;47.502;18.940;2023-02-20T05:03:42;98818.75;;;0.02;90.92
65754;BME280;52488;47.502;18.940;2023-02-20T05:04:45;98824.66;;;0.01;91.01
65754;BME280;52488;47.502;18.940;2023-02-20T05:05:48;98836.44;;;0.03;91.10
65754;BME280;52488;47.502;18.940;2023-02-20T05:06:53;98835.72;;;0.03;91.21
65754;BME280;52488;47.502;18.940;2023-02-20T05:07:59;98834.47;;;0.04;91.40
65754;BME280;52488;47.502;18.940;2023-02-20T05:09:03;98834.22;;;0.07;91.51
65754;BME280;52488;47.502;18.940;2023-02-20T05:10:07;98831.25;;;0.11;91.30
65754;BME280;52488;47.502;18.940;2023-02-20T05:11:10;98833.97;;;0.11;91.23
65754;BME280;52488;47.502;18.940;2023-02-20T05:12:14;98836.19;;;0.12;91.26
65754;BME280;52488;47.502;18.940;2023-02-20T05:13:16;98838.91;;;0.12;91.31
65754;BME280;52488;47.502;18.940;2023-02-20T05:14:20;98841.59;;;0.18;91.24
65754;BME280;52488;47.502;18.940;2023-02-20T05:15:24;98839.84;;;0.20;91.05
65754;BME280;52488;47.502;18.940;2023-02-20T05:16:27;98837.41;;;0.28;90.72
65754;BME280;52488;47.502;18.940;2023-02-20T05:17:30;98840.34;;;0.24;90.57
65754;BME280;52488;47.502;18.940;2023-02-20T05:18:34;98836.63;;;0.33;90.32
65754;BME280;52488;47.502;18.940;2023-02-20T05:19:37;98848.44;;;0.30;90.13
65754;BME280;52488;47.502;18.940;2023-02-20T05:20:40;98839.62;;;0.24;90.21
65754;BME280;52488;47.502;18.940;2023-02-20T05:22:01;98840.34;;;0.24;90.47
65754;BME280;52488;47.502;18.940;2023-02-20T05:23:23;98850.66;;;0.32;90.20
65754;BME280;52488;47.502;18.940;2023-02-20T05:24:26;98842.03;;;0.39;90.09
65754;BME280;52488;47.502;18.940;2023-02-20T05:25:30;98851.38;;;0.32;90.17
65754;BME280;52488;47.502;18.940;2023-02-20T05:26:33;98852.38;;;0.29;90.33
65754;BME280;52488;47.502;18.940;2023-02-20T05:27:36;98851.16;;;0.30;90.45
65754;BME280;52488;47.502;18.940;2023-02-20T05:28:39;98853.13;;;0.35;90.36
65754;BME280;52488;47.502;18.940;2023-02-20T05:29:50;98852.38;;;0.35;90.29
65754;BME280;52488;47.502;18.940;2023-02-20T05:30:54;98859.47;;;0.38;90.19
65754;BME280;52488;47.502;18.940;2023-02-20T05:31:57;98859.03;;;0.34;90.23
65754;BME280;52488;47.502;18.940;2023-02-20T05:33:00;98859.47;;;0.38;90.22
65754;BME280;52488;47.502;18.940;2023-02-20T05:34:03;98862.66;;;0.53;89.88
65754;BME280;52488;47.502;18.940;2023-02-20T05:35:06;98863.88;;;0.63;88.92
65754;BME280;52488;47.502;18.940;2023-02-20T05:36:09;98866.59;;;0.52;89.15
65754;BME280;52488;47.502;18.940;2023-02-20T05:37:14;98868.81;;;0.48;89.36
65754;BME280;52488;47.502;18.940;2023-02-20T05:38:18;98864.38;;;0.56;89.22
65754;BME280;52488;47.502;18.940;2023-02-20T05:39:21;98866.81;;;0.54;89.21
65754;BME280;52488;47.502;18.940;2023-02-20T05:40:24;98873.47;;;0.53;89.32
65754;BME280;52488;47.502;18.940;2023-02-20T05:41:27;98865.09;;;0.68;88.82
65754;BME280;52488;47.502;18.940;2023-02-20T05:42:30;98869.25;;;0.74;88.14
65754;BME280;52488;47.502;18.940;2023-02-20T05:43:33;98869.25;;;0.69;88.21
65754;BME280;52488;47.502;18.940;2023-02-20T05:44:36;98870.97;;;0.66;88.40
65754;BME280;52488;47.502;18.940;2023-02-20T05:45:39;98870.00;;;0.64;88.54
65754;BME280;52488;47.502;18.940;2023-02-20T05:46:42;98868.53;;;0.68;88.61
65754;BME280;52488;47.502;18.940;2023-02-20T05:47:45;98871.97;;;0.69;88.45
65754;BME280;52488;47.502;18.940;2023-02-20T05:48:49;98873.44;;;0.70;88.43
65754;BME280;52488;47.502;18.940;2023-02-20T05:49:52;98876.12;;;0.75;88.16
65754;BME280;52488;47.502;18.940;2023-02-20T05:50:55;98875.59;;;0.83;87.77
65754;BME280;52488;47.502;18.940;2023-02-20T05:51:58;98879.81;;;0.84;87.51
65754;BME280;52488;47.502;18.940;2023-02-20T05:53:02;98874.41;;;0.78;87.58
65754;BME280;52488;47.502;18.940;2023-02-20T05:54:05;98866.28;;;0.84;87.51
65754;BME280;52488;47.502;18.940;2023-02-20T05:55:08;98866.75;;;0.82;87.33
65754;BME280;52488;47.502;18.940;2023-02-20T05:56:11;98871.69;;;0.84;87.30
65754;BME280;52488;47.502;18.940;2023-02-20T05:57:14;98864.28;;;0.90;87.00
65754;BME280;52488;47.502;18.940;2023-02-20T05:58:18;98866.28;;;0.84;87.19
65754;BME280;52488;47.502;18.940;2023-02-20T05:59:22;98863.06;;;0.85;87.48
65754;BME280;52488;47.502;18.940;2023-02-20T06:00:25;98872.87;;;0.88;87.32
65754;BME280;52488;47.502;18.940;2023-02-20T06:01:30;98870.69;;;0.87;87.38
65754;BME280;52488;47.502;18.940;2023-02-20T06:02:33;98875.34;;;0.92;87.31
65754;BME280;52488;47.502;18.940;2023-02-20T06:03:36;98879.78;;;0.89;87.33
65754;BME280;52488;47.502;18.940;2023-02-20T06:04:39;98880.25;;;0.93;87.44
65754;BME280;52488;47.502;18.940;2023-02-20T06:05:43;98874.06;;;1.04;86.83
65754;BME280;52488;47.502;18.940;2023-02-20T06:06:46;98874.53;;;1.08;86.36
65754;BME280;52488;47.502;18.940;2023-02-20T06:07:49;98872.59;;;1.03;86.47
65754;BME280;52488;47.502;18.940;2023-02-20T06:08:53;98875.78;;;1.01;86.60
65754;BME280;52488;47.502;18.940;2023-02-20T06:09:56;98877.75;;;1.01;86.78
65754;BME280;52488;47.502;18.940;2023-02-20T06:10:59;98885.63;;;0.99;86.93
65754;BME280;52488;47.502;18.940;2023-02-20T06:12:06;98883.88;;;1.07;86.71
65754;BME280;52488;47.502;18.940;2023-02-20T06:13:09;98883.38;;;1.14;86.00
65754;BME280;52488;47.502;18.940;2023-02-20T06:14:12;98890.53;;;1.12;86.08
65754;BME280;52488;47.502;18.940;2023-02-20T06:15:15;98907.22;;;1.10;86.31